createdAt,value
2022-11-29T00:00:37.997Z,101.286
2022-11-29T00:01:38.012Z,101.357
2022-11-29T00:02:38.206Z,101.286
2022-11-29T00:03:38.087Z,101.357
2022-11-29T00:04:38.123Z,101.357
2022-11-29T00:05:38.179Z,101.357
2022-11-29T00:06:38.195Z,101.143
2022-11-29T00:07:38.283Z,101.071
2022-11-29T00:08:38.295Z,101.286
2022-11-29T00:09:38.300Z,101.357
2022-11-29T00:10:38.343Z,101.429
2022-11-29T00:11:38.394Z,101.357
2022-11-29T00:12:38.430Z,101.143
2022-11-29T00:13:38.485Z,101.286
2022-11-29T00:14:38.524Z,101.429
2022-11-29T00:15:38.531Z,101.143
2022-11-29T00:16:38.599Z,101.286
2022-11-29T00:17:38.594Z,101.214
2022-11-29T00:18:38.628Z,101.286
2022-11-29T00:19:38.681Z,101.286
2022-11-29T00:20:38.731Z,101.357
2022-11-29T00:21:38.745Z,101.286
2022-11-29T00:22:38.765Z,101.357
2022-11-29T00:23:38.811Z,101.5
2022-11-29T00:24:38.864Z,101.286
2022-11-29T00:25:38.912Z,101.286
2022-11-29T00:26:38.925Z,101.286
2022-11-29T00:27:38.951Z,101.286
2022-11-29T00:28:38.986Z,101.357
2022-11-29T00:29:39.020Z,101.286
2022-11-29T00:30:39.255Z,101.286
2022-11-29T00:31:39.091Z,101.286
2022-11-29T00:32:39.112Z,101.286
2022-11-29T00:33:39.157Z,101.286
2022-11-29T00:34:39.215Z,101.286
2022-11-29T00:35:39.260Z,101.286
2022-11-29T00:36:39.272Z,101.143
2022-11-29T00:37:39.304Z,101.357
2022-11-29T00:38:39.333Z,101.286
2022-11-29T00:39:39.366Z,101.357
2022-11-29T00:40:39.428Z,101.286
2022-11-29T00:41:39.444Z,101.357
2022-11-29T00:42:39.477Z,101.214
2022-11-29T00:43:39.514Z,101.214
2022-11-29T00:44:39.561Z,101.286
2022-11-29T00:45:39.589Z,101.286
2022-11-29T00:46:39.635Z,101.357
2022-11-29T00:47:39.652Z,101.357
2022-11-29T00:48:39.688Z,101.286
2022-11-29T00:49:39.724Z,101.357
2022-11-29T00:50:39.758Z,101.286
2022-11-29T00:51:39.810Z,101.357
2022-11-29T00:52:39.827Z,101.5
2022-11-29T00:53:39.856Z,101.429
2022-11-29T00:54:39.898Z,101.357
2022-11-29T00:55:39.923Z,101.357
2022-11-29T00:56:39.958Z,101.214
2022-11-29T00:57:39.992Z,101.214
2022-11-29T00:58:40.019Z,101.286
2022-11-29T00:59:40.052Z,101.286
2022-11-29T01:00:40.094Z,101.286
2022-11-29T01:01:40.172Z,101.286
2022-11-29T01:02:40.207Z,101.429
2022-11-29T01:03:40.184Z,101.357
2022-11-29T01:04:40.221Z,101.286
2022-11-29T01:05:40.300Z,101.286
2022-11-29T01:06:40.295Z,101.286
2022-11-29T01:07:40.426Z,101.286
2022-11-29T01:08:40.387Z,101.357
2022-11-29T01:09:40.401Z,101.286
2022-11-29T01:10:40.445Z,101.143
2022-11-29T01:11:40.475Z,101.286
2022-11-29T01:12:40.519Z,101.286
2022-11-29T01:13:40.571Z,101.357
2022-11-29T01:14:40.593Z,101.357
2022-11-29T01:15:40.629Z,101.286
2022-11-29T01:16:40.732Z,101.071
2022-11-29T01:17:40.695Z,101.286
2022-11-29T01:18:40.729Z,101.357
2022-11-29T01:19:41.713Z,101.286
2022-11-29T01:20:40.803Z,101.071
2022-11-29T01:21:40.836Z,101.143
2022-11-29T01:22:40.881Z,101.357
2022-11-29T01:23:40.935Z,101.143
2022-11-29T01:24:41.103Z,101.286
2022-11-29T01:25:40.983Z,101.143
2022-11-29T01:26:41.016Z,101.286
2022-11-29T01:27:41.072Z,101.286
2022-11-29T01:28:41.083Z,101.214
2022-11-29T01:29:41.112Z,101.286
2022-11-29T01:30:41.200Z,101.143
2022-11-29T01:31:41.173Z,101.357
2022-11-29T01:32:41.234Z,101.357
2022-11-29T01:33:41.267Z,101.214
2022-11-29T01:34:41.525Z,101.357
2022-11-29T01:35:41.305Z,101.357
2022-11-29T01:36:41.388Z,101.286
2022-11-29T01:37:41.370Z,101.357
2022-11-29T01:38:41.408Z,101.357
2022-11-29T01:39:41.441Z,101.214
2022-11-29T01:40:41.471Z,101.286
2022-11-29T01:41:41.536Z,101.357
2022-11-29T01:42:41.539Z,101.143
2022-11-29T01:43:41.575Z,101.143
2022-11-29T01:44:41.811Z,101.286
2022-11-29T01:45:41.737Z,101.143
2022-11-29T01:46:41.700Z,101.286
2022-11-29T01:47:41.706Z,101.286
2022-11-29T01:48:41.747Z,101.143
2022-11-29T01:49:41.788Z,101.286
2022-11-29T01:50:41.840Z,101.286
2022-11-29T01:51:41.853Z,101.143
2022-11-29T01:52:41.887Z,101.357
2022-11-29T01:53:41.917Z,101.429
2022-11-29T01:54:42.256Z,101.429
2022-11-29T01:55:42.037Z,101.286
2022-11-29T01:56:42.036Z,101.357
2022-11-29T01:57:42.070Z,101.429
2022-11-29T01:58:42.128Z,101.214
2022-11-29T01:59:42.152Z,101.286
2022-11-29T02:00:42.190Z,101.357
2022-11-29T02:01:42.314Z,101.286
2022-11-29T02:02:42.309Z,101.143
2022-11-29T02:03:42.314Z,101.429
2022-11-29T02:04:42.818Z,101.286
2022-11-29T02:05:42.374Z,101.286
2022-11-29T02:06:42.437Z,101.429
2022-11-29T02:07:42.546Z,101.143
2022-11-29T02:08:42.492Z,101.357
2022-11-29T02:09:42.555Z,101.286
2022-11-29T02:10:42.575Z,101.286
2022-11-29T02:11:42.615Z,101.214
2022-11-29T02:12:42.673Z,101.286
2022-11-29T02:13:42.685Z,101.357
2022-11-29T02:14:43.125Z,101.214
2022-11-29T02:15:42.829Z,101.214
2022-11-29T02:16:42.806Z,101.429
2022-11-29T02:17:42.850Z,101.286
2022-11-29T02:18:42.860Z,101.429
2022-11-29T02:19:42.898Z,101.286
2022-11-29T02:20:42.944Z,101.143
2022-11-29T02:21:42.948Z,101.357
2022-11-29T02:22:43.006Z,101.5
2022-11-29T02:23:43.030Z,101.286
2022-11-29T02:24:43.385Z,101.143
2022-11-29T02:25:43.099Z,101.286
2022-11-29T02:26:43.129Z,101.286
2022-11-29T02:27:43.192Z,101.286
2022-11-29T02:28:43.229Z,101.357
2022-11-29T02:29:43.240Z,101.143
2022-11-29T02:30:43.337Z,101.214
2022-11-29T02:31:43.308Z,101.143
2022-11-29T02:32:43.337Z,101.357
2022-11-29T02:33:43.405Z,101.286
2022-11-29T02:34:43.817Z,101.357
2022-11-29T02:35:43.444Z,101.143
2022-11-29T02:36:43.477Z,101.143
2022-11-29T02:37:43.505Z,101.286
2022-11-29T02:38:43.562Z,101.286
2022-11-29T02:39:43.586Z,101.286
2022-11-29T02:40:43.627Z,101.357
2022-11-29T02:41:43.648Z,101.143
2022-11-29T02:42:43.713Z,101.286
2022-11-29T02:43:43.722Z,101.286
2022-11-29T02:44:44.012Z,101.286
2022-11-29T02:45:43.893Z,101.429
2022-11-29T02:46:43.831Z,101.143
2022-11-29T02:47:43.881Z,101.286
2022-11-29T02:48:43.888Z,101.143
2022-11-29T02:49:43.927Z,101.286
2022-11-29T02:50:43.986Z,101.357
2022-11-29T02:51:43.987Z,101.286
2022-11-29T02:52:44.029Z,101.143
2022-11-29T02:53:44.064Z,101.214
2022-11-29T02:54:44.429Z,101.143
2022-11-29T02:55:44.131Z,101.143
2022-11-29T02:56:44.171Z,101.143
2022-11-29T02:57:44.230Z,101.357
2022-11-29T02:58:44.241Z,101.143
2022-11-29T02:59:44.265Z,101.286
2022-11-29T03:00:44.296Z,101.286
2022-11-29T03:01:44.396Z,101.143
2022-11-29T03:02:44.396Z,101.143
2022-11-29T03:03:44.392Z,101.143
2022-11-29T03:04:44.715Z,101.357
2022-11-29T03:05:44.471Z,101.357
2022-11-29T03:06:44.530Z,101.286
2022-11-29T03:07:44.577Z,101.214
2022-11-29T03:08:44.602Z,101.286
2022-11-29T03:09:44.620Z,101.214
2022-11-29T03:10:44.650Z,101.357
2022-11-29T03:11:44.681Z,101.286
2022-11-29T03:12:44.739Z,101.357
2022-11-29T03:13:44.747Z,101.357
2022-11-29T03:14:45.152Z,101.214
2022-11-29T03:15:44.891Z,101.5
2022-11-29T03:16:44.853Z,101.143
2022-11-29T03:17:44.911Z,101.214
2022-11-29T03:18:44.916Z,101.286
2022-11-29T03:19:44.954Z,101.429
2022-11-29T03:20:45.001Z,101.286
2022-11-29T03:21:45.025Z,101.357
2022-11-29T03:22:45.061Z,101.286
2022-11-29T03:23:45.090Z,101.286
2022-11-29T03:24:45.486Z,101.143
2022-11-29T03:25:45.161Z,101.143
2022-11-29T03:26:45.213Z,101.286
2022-11-29T03:27:45.225Z,101.143
2022-11-29T03:28:45.259Z,101.286
2022-11-29T03:29:45.288Z,101.5
2022-11-29T03:30:45.409Z,101.357
2022-11-29T03:31:45.384Z,101.286
2022-11-29T03:32:45.415Z,101.357
2022-11-29T03:33:45.419Z,101.357
2022-11-29T03:34:45.831Z,101.286
2022-11-29T03:35:45.506Z,101.5
2022-11-29T03:36:45.523Z,101.286
2022-11-29T03:37:45.549Z,101.286
2022-11-29T03:38:45.590Z,101.286
2022-11-29T03:39:45.627Z,101.214
2022-11-29T03:40:45.685Z,101.357
2022-11-29T03:41:45.690Z,101.357
2022-11-29T03:42:45.727Z,101.357
2022-11-29T03:43:45.780Z,101.429
2022-11-29T03:44:45.992Z,101.5
2022-11-29T03:45:45.860Z,101.357
2022-11-29T03:46:45.860Z,101.286
2022-11-29T03:47:45.882Z,101.286
2022-11-29T03:48:45.921Z,101.214
2022-11-29T03:49:45.963Z,101.357
2022-11-29T03:50:46.018Z,101.214
2022-11-29T03:51:46.025Z,101.429
2022-11-29T03:52:46.058Z,101.429
2022-11-29T03:53:46.114Z,101.143
2022-11-29T03:54:46.430Z,101.357
2022-11-29T03:55:46.157Z,101.357
2022-11-29T03:56:46.205Z,101.286
2022-11-29T03:57:46.230Z,101.214
2022-11-29T03:58:46.278Z,101.286
2022-11-29T03:59:46.302Z,101.286
2022-11-29T04:00:46.359Z,101.429
2022-11-29T04:01:46.496Z,101.286
2022-11-29T04:02:46.445Z,101.357
2022-11-29T04:03:46.445Z,101.429
2022-11-29T04:04:46.799Z,101.286
2022-11-29T04:05:46.521Z,101.143
2022-11-29T04:06:46.589Z,101.286
2022-11-29T04:07:46.647Z,101.429
2022-11-29T04:08:46.639Z,101.357
2022-11-29T04:09:46.690Z,101.286
2022-11-29T04:10:46.740Z,101.286
2022-11-29T04:11:46.755Z,101.429
2022-11-29T04:12:46.809Z,101.286
2022-11-29T04:13:46.832Z,101.357
2022-11-29T04:14:47.084Z,101.214
2022-11-29T04:15:46.932Z,101.357
2022-11-29T04:16:46.961Z,101.5
2022-11-29T04:17:47.003Z,101.286
2022-11-29T04:18:47.012Z,101.357
2022-11-29T04:19:47.044Z,101.286
2022-11-29T04:20:48.528Z,101.286
2022-11-29T04:21:47.122Z,101.429
2022-11-29T04:22:47.151Z,101.286
2022-11-29T04:23:47.172Z,101.357
2022-11-29T04:24:47.476Z,101.429
2022-11-29T04:25:47.238Z,101.429
2022-11-29T04:26:47.278Z,101.5
2022-11-29T04:27:47.335Z,101.286
2022-11-29T04:28:47.350Z,101.286
2022-11-29T04:29:47.383Z,101.429
2022-11-29T04:30:47.483Z,101.286
2022-11-29T04:31:47.469Z,101.286
2022-11-29T04:32:47.520Z,101.357
2022-11-29T04:33:47.536Z,101.286
2022-11-29T04:34:47.680Z,101.5
2022-11-29T04:35:47.615Z,101.5
2022-11-29T04:36:47.675Z,101.357
2022-11-29T04:37:47.693Z,101.357
2022-11-29T04:38:47.753Z,101.429
2022-11-29T04:39:47.762Z,101.357
2022-11-29T04:40:47.787Z,101.429
2022-11-29T04:41:47.825Z,101.357
2022-11-29T04:42:47.846Z,101.5
2022-11-29T04:43:47.914Z,101.429
2022-11-29T04:44:47.933Z,101.286
2022-11-29T04:45:47.968Z,101.5
2022-11-29T04:46:48.058Z,101.286
2022-11-29T04:47:48.054Z,101.286
2022-11-29T04:48:48.083Z,101.429
2022-11-29T04:49:48.119Z,101.357
2022-11-29T04:50:48.140Z,101.286
2022-11-29T04:51:48.181Z,101.357
2022-11-29T04:52:48.213Z,101.357
2022-11-29T04:53:48.277Z,101.357
2022-11-29T04:54:48.292Z,101.357
2022-11-29T04:55:48.324Z,101.286
2022-11-29T04:56:48.358Z,101.286
2022-11-29T04:57:48.390Z,101.357
2022-11-29T04:58:48.445Z,101.357
2022-11-29T04:59:48.474Z,101.643
2022-11-29T05:00:48.486Z,101.286
2022-11-29T05:01:48.551Z,101.429
2022-11-29T05:02:48.617Z,101.357
2022-11-29T05:03:52.477Z,101.5
2022-11-29T05:04:48.643Z,101.357
2022-11-29T05:05:48.660Z,101.357
2022-11-29T05:06:48.691Z,101.357
2022-11-29T05:07:48.776Z,101.5
2022-11-29T05:08:48.772Z,101.429
2022-11-29T05:09:48.821Z,101.429
2022-11-29T05:10:48.840Z,101.286
2022-11-29T05:11:48.881Z,101.357
2022-11-29T05:12:48.915Z,101.429
2022-11-29T05:13:48.948Z,101.214
2022-11-29T05:14:49.075Z,101.286
2022-11-29T05:15:49.047Z,101.429
2022-11-29T05:16:49.037Z,101.429
2022-11-29T05:17:49.081Z,101.286
2022-11-29T05:18:49.123Z,101.429
2022-11-29T05:19:49.188Z,101.286
2022-11-29T05:20:49.201Z,101.357
2022-11-29T05:21:49.249Z,101.5
2022-11-29T05:22:49.289Z,101.5
2022-11-29T05:23:49.287Z,101.286
2022-11-29T05:24:49.328Z,101.429
2022-11-29T05:25:49.365Z,101.571
2022-11-29T05:26:49.426Z,101.5
2022-11-29T05:27:49.436Z,101.286
2022-11-29T05:28:49.490Z,101.429
2022-11-29T05:29:49.506Z,101.429
2022-11-29T05:30:49.604Z,101.5
2022-11-29T05:31:49.576Z,101.286
2022-11-29T05:32:49.612Z,101.286
2022-11-29T05:33:49.677Z,101.429
2022-11-29T05:34:50.121Z,101.286
2022-11-29T05:35:49.744Z,101.286
2022-11-29T05:36:49.759Z,101.286
2022-11-29T05:37:49.786Z,101.357
2022-11-29T05:38:49.829Z,101.357
2022-11-29T05:39:49.880Z,101.5
2022-11-29T05:40:49.894Z,101.429
2022-11-29T05:41:49.917Z,101.429
2022-11-29T05:42:49.962Z,101.429
2022-11-29T05:43:49.993Z,101.214
2022-11-29T05:44:50.062Z,101.429
2022-11-29T05:45:50.069Z,101.357
2022-11-29T05:46:50.144Z,101.429
2022-11-29T05:47:50.126Z,101.357
2022-11-29T05:48:50.165Z,101.357
2022-11-29T05:49:50.218Z,101.357
2022-11-29T05:50:50.258Z,101.286
2022-11-29T05:51:50.264Z,101.357
2022-11-29T05:52:50.289Z,101.357
2022-11-29T05:53:50.337Z,101.429
2022-11-29T05:54:50.372Z,101.429
2022-11-29T05:55:50.423Z,101.286
2022-11-29T05:56:50.476Z,101.429
2022-11-29T05:57:50.482Z,101.429
2022-11-29T05:58:50.520Z,101.429
2022-11-29T05:59:50.551Z,101.5
2022-11-29T06:00:50.597Z,101.357
2022-11-29T06:01:50.691Z,101.429
2022-11-29T06:02:50.708Z,101.5
2022-11-29T06:03:50.696Z,101.429
2022-11-29T06:04:50.734Z,101.429
2022-11-29T06:05:50.777Z,101.429
2022-11-29T06:06:50.837Z,101.286
2022-11-29T06:07:50.867Z,101.357
2022-11-29T06:08:50.890Z,101.571
2022-11-29T06:09:50.925Z,101.429
2022-11-29T06:10:50.955Z,101.5
2022-11-29T06:11:51.012Z,101.286
2022-11-29T06:12:51.035Z,101.357
2022-11-29T06:13:51.077Z,101.357
2022-11-29T06:14:51.096Z,101.357
2022-11-29T06:15:51.157Z,101.357
2022-11-29T06:16:51.195Z,101.286
2022-11-29T06:17:51.206Z,101.429
2022-11-29T06:18:51.229Z,101.429
2022-11-29T06:19:51.283Z,101.429
2022-11-29T06:20:51.302Z,101.357
2022-11-29T06:21:51.336Z,101.5
2022-11-29T06:22:51.389Z,101.429
2022-11-29T06:23:51.409Z,101.429
2022-11-29T06:24:51.444Z,101.429
2022-11-29T06:25:51.476Z,101.5
2022-11-29T06:26:51.550Z,101.643
2022-11-29T06:27:51.551Z,101.429
2022-11-29T06:28:51.597Z,101.429
2022-11-29T06:29:51.637Z,101.643
2022-11-29T06:30:51.669Z,101.286
2022-11-29T06:31:51.725Z,101.429
2022-11-29T06:32:51.768Z,101.286
2022-11-29T06:33:51.767Z,101.357
2022-11-29T06:34:51.806Z,101.5
2022-11-29T06:35:51.842Z,101.357
2022-11-29T06:36:51.874Z,101.357
2022-11-29T06:37:35.706Z,101.5
2022-11-29T06:38:35.761Z,101.429
2022-11-29T06:39:35.777Z,101.429
2022-11-29T06:40:35.832Z,101.286
2022-11-29T06:41:35.862Z,101.429
2022-11-29T06:42:35.887Z,101.357
2022-11-29T06:43:35.950Z,101.429
2022-11-29T06:44:35.966Z,101.357
2022-11-29T06:45:36.008Z,101.571
2022-11-29T06:46:36.200Z,101.429
2022-11-29T06:47:36.100Z,101.429
2022-11-29T06:48:36.132Z,101.429
2022-11-29T06:49:36.154Z,101.5
2022-11-29T06:50:36.187Z,101.429
2022-11-29T06:51:36.229Z,101.429
2022-11-29T06:52:36.255Z,101.5
2022-11-29T06:53:36.316Z,101.5
2022-11-29T06:54:36.328Z,101.5
2022-11-29T06:55:36.388Z,101.429
2022-11-29T06:56:36.413Z,101.5
2022-11-29T06:57:36.439Z,101.5
2022-11-29T06:58:36.600Z,101.286
2022-11-29T06:59:36.502Z,101.643
2022-11-29T07:00:36.593Z,101.429
2022-11-29T07:01:36.627Z,101.5
2022-11-29T07:02:36.590Z,101.5
2022-11-29T07:03:36.649Z,101.357
2022-11-29T07:04:40.005Z,101.5
2022-11-29T07:05:36.699Z,101.429
2022-11-29T07:06:36.751Z,101.643
2022-11-29T07:07:36.878Z,101.357
2022-11-29T07:08:36.819Z,101.5
2022-11-29T07:10:11.972Z,101.5
2022-11-29T07:11:07.149Z,101.5
2022-11-29T07:12:07.180Z,101.357
2022-11-29T07:13:07.218Z,101.5
2022-11-29T07:14:07.275Z,101.357
2022-11-29T07:15:07.317Z,101.429
2022-11-29T07:15:18.959Z,101.429
2022-11-29T07:16:19.057Z,101.5
2022-11-29T07:17:19.026Z,101.286
2022-11-29T07:18:19.063Z,101.643
2022-11-29T07:19:19.104Z,101.643
2022-11-29T07:20:19.133Z,101.571
2022-11-29T07:21:19.160Z,101.5
2022-11-29T07:22:19.183Z,101.5
2022-11-29T07:23:19.221Z,101.643
2022-11-29T07:24:19.253Z,101.643
2022-11-29T07:25:19.275Z,101.5
2022-11-29T07:26:19.303Z,101.5
2022-11-29T07:27:19.342Z,101.643
2022-11-29T07:28:19.359Z,101.5
2022-11-29T07:29:19.393Z,101.5
2022-11-29T07:30:19.429Z,101.5
2022-11-29T07:31:19.517Z,101.5
2022-11-29T07:32:19.486Z,101.5
2022-11-29T07:33:19.529Z,101.5
2022-11-29T07:34:19.559Z,101.5
2022-11-29T07:35:19.594Z,101.5
2022-11-29T07:36:19.628Z,101.571
2022-11-29T07:37:19.657Z,101.357
2022-11-29T07:38:19.694Z,101.357
2022-11-29T07:39:19.722Z,101.429
2022-11-29T07:40:19.740Z,101.571
2022-11-29T07:41:19.772Z,101.5
2022-11-29T07:42:19.810Z,101.5
2022-11-29T07:43:19.836Z,101.5
2022-11-29T07:44:19.868Z,101.643
2022-11-29T07:45:19.906Z,101.429
2022-11-29T07:46:19.970Z,101.357
2022-11-29T07:47:19.966Z,101.357
2022-11-29T07:48:19.983Z,101.5
2022-11-29T07:49:20.013Z,101.429
2022-11-29T07:50:20.050Z,101.357
2022-11-29T07:51:20.077Z,101.571
2022-11-29T07:52:20.102Z,101.429
2022-11-29T07:53:20.130Z,101.5
2022-11-29T07:54:20.152Z,101.429
2022-11-29T07:55:20.189Z,101.571
2022-11-29T07:56:20.219Z,101.571
2022-11-29T07:57:20.243Z,101.643
2022-11-29T07:58:20.309Z,101.429
2022-11-29T07:59:20.308Z,101.571
2022-11-29T08:00:20.324Z,101.571
2022-11-29T08:01:20.485Z,101.429
2022-11-29T08:02:20.467Z,101.286
2022-11-29T08:03:20.424Z,101.571
2022-11-29T08:04:20.463Z,101.429
2022-11-29T08:05:20.466Z,101.429
2022-11-29T08:06:20.502Z,101.429
2022-11-29T08:07:20.550Z,101.5
2022-11-29T08:08:20.550Z,101.429
2022-11-29T08:09:20.589Z,101.571
2022-11-29T08:10:20.617Z,101.429
2022-11-29T08:11:20.655Z,101.429
2022-11-29T08:12:20.674Z,101.429
2022-11-29T08:13:20.698Z,101.429
2022-11-29T08:14:20.737Z,101.571
2022-11-29T08:15:20.752Z,101.571
2022-11-29T08:16:20.843Z,101.429
2022-11-29T08:17:20.827Z,101.571
2022-11-29T08:18:20.860Z,101.429
2022-11-29T08:19:20.880Z,101.429
2022-11-29T08:20:20.916Z,101.5
2022-11-29T08:21:20.941Z,101.571
2022-11-29T08:22:20.981Z,101.429
2022-11-29T08:23:21.006Z,101.5
2022-11-29T08:24:21.026Z,101.571
2022-11-29T08:25:21.068Z,101.429
2022-11-29T08:26:21.087Z,101.571
2022-11-29T08:27:21.128Z,101.5
2022-11-29T08:28:21.166Z,101.429
2022-11-29T08:29:21.200Z,101.643
2022-11-29T08:30:21.228Z,101.5
2022-11-29T08:31:21.336Z,101.357
2022-11-29T08:32:21.290Z,101.429
2022-11-29T08:33:21.320Z,101.357
2022-11-29T08:34:21.361Z,101.429
2022-11-29T08:35:21.395Z,101.5
2022-11-29T08:36:21.414Z,101.5
2022-11-29T08:37:21.453Z,101.643
2022-11-29T08:38:21.471Z,101.357
2022-11-29T08:39:21.500Z,101.571
2022-11-29T08:40:21.534Z,101.5
2022-11-29T08:41:21.559Z,101.357
2022-11-29T08:42:21.597Z,101.5
2022-11-29T08:43:21.627Z,101.429
2022-11-29T08:44:21.654Z,101.571
2022-11-29T08:45:21.685Z,101.5
2022-11-29T08:46:21.738Z,101.571
2022-11-29T08:47:21.741Z,101.714
2022-11-29T08:48:21.769Z,101.571
2022-11-29T08:49:21.799Z,101.571
2022-11-29T08:50:21.820Z,101.5
2022-11-29T08:51:21.849Z,101.429
2022-11-29T08:52:21.885Z,101.357
2022-11-29T08:53:21.916Z,101.429
2022-11-29T08:54:21.938Z,101.571
2022-11-29T08:55:21.958Z,101.714
2022-11-29T08:57:10.257Z,101.5
2022-11-29T08:57:39.654Z,101.5
2022-11-29T08:58:22.061Z,101.429
2022-11-29T08:59:22.089Z,101.714
2022-11-29T09:00:22.116Z,101.357
2022-11-29T09:01:22.166Z,101.5
2022-11-29T09:02:22.221Z,101.5
2022-11-29T09:03:22.200Z,101.643
2022-11-29T09:04:22.247Z,101.5
2022-11-29T09:05:22.283Z,101.357
2022-11-29T09:06:22.310Z,101.571
2022-11-29T09:07:22.378Z,101.357
2022-11-29T09:08:22.362Z,101.643
2022-11-29T09:09:22.381Z,101.5
2022-11-29T09:10:22.465Z,101.714
2022-11-29T09:11:22.457Z,101.357
2022-11-29T09:12:22.498Z,101.714
2022-11-29T09:13:22.519Z,101.429
2022-11-29T09:14:22.555Z,101.357
2022-11-29T09:15:22.593Z,101.429
2022-11-29T09:16:22.688Z,101.429
2022-11-29T09:17:22.654Z,101.357
2022-11-29T09:18:22.681Z,101.571
2022-11-29T09:19:22.716Z,101.429
2022-11-29T09:20:22.821Z,101.429
2022-11-29T09:21:22.772Z,101.429
2022-11-29T09:22:22.807Z,101.429
2022-11-29T09:23:22.832Z,101.429
2022-11-29T09:24:22.859Z,101.714
2022-11-29T09:25:22.896Z,101.571
2022-11-29T09:26:22.913Z,101.357
2022-11-29T09:27:22.953Z,101.571
2022-11-29T09:28:22.987Z,101.5
2022-11-29T09:29:23.008Z,101.571
2022-11-29T09:30:23.884Z,101.571
2022-11-29T09:31:23.149Z,101.5
2022-11-29T09:32:23.105Z,101.429
2022-11-29T09:33:23.128Z,101.571
2022-11-29T09:34:23.163Z,101.429
2022-11-29T09:35:23.197Z,101.357
2022-11-29T09:36:28.163Z,101.571
2022-11-29T09:37:23.254Z,101.643
2022-11-29T09:38:23.269Z,101.643
2022-11-29T09:39:23.293Z,101.5
2022-11-29T09:40:23.317Z,101.643
2022-11-29T09:41:23.354Z,101.571
2022-11-29T09:42:23.390Z,101.5
2022-11-29T09:43:23.418Z,101.429
2022-11-29T09:44:23.450Z,101.5
2022-11-29T09:45:23.467Z,101.429
2022-11-29T09:46:23.575Z,101.429
2022-11-29T09:47:23.532Z,101.429
2022-11-29T09:48:23.565Z,101.5
2022-11-29T09:49:23.602Z,101.5
2022-11-29T09:50:23.630Z,101.5
2022-11-29T09:51:23.655Z,101.5
2022-11-29T09:52:23.690Z,101.643
2022-11-29T09:53:23.713Z,101.5
2022-11-29T09:54:23.747Z,101.5
2022-11-29T09:55:23.777Z,101.571
2022-11-29T09:56:23.805Z,101.571
2022-11-29T09:57:23.835Z,101.5
2022-11-29T09:58:23.867Z,101.5
2022-11-29T09:59:23.902Z,101.571
2022-11-29T10:00:23.929Z,101.5
2022-11-29T10:01:23.992Z,101.5
2022-11-29T10:02:24.013Z,101.5
2022-11-29T10:03:24.028Z,101.5
2022-11-29T10:04:24.061Z,101.429
2022-11-29T10:05:24.092Z,101.571
2022-11-29T10:06:24.123Z,101.571
2022-11-29T10:07:24.211Z,101.643
2022-11-29T10:08:24.180Z,101.571
2022-11-29T10:09:24.214Z,101.571
2022-11-29T10:10:24.249Z,101.571
2022-11-29T10:11:24.286Z,101.571
2022-11-29T10:12:24.328Z,101.571
2022-11-29T10:13:24.358Z,101.571
2022-11-29T10:14:24.399Z,101.571
2022-11-29T10:15:24.412Z,101.571
2022-11-29T10:16:24.586Z,101.571
2022-11-29T10:17:24.487Z,101.571
2022-11-29T10:18:24.520Z,101.571
2022-11-29T10:19:24.551Z,101.571
2022-11-29T10:20:24.576Z,101.643
2022-11-29T10:21:24.610Z,101.571
2022-11-29T10:22:24.658Z,101.571
2022-11-29T10:23:24.683Z,101.571
2022-11-29T10:24:24.711Z,101.571
2022-11-29T10:25:24.771Z,101.571
2022-11-29T10:26:24.781Z,101.643
2022-11-29T10:27:24.811Z,101.571
2022-11-29T10:28:24.846Z,101.571
2022-11-29T10:29:24.864Z,101.571
2022-11-29T10:30:24.952Z,101.571
2022-11-29T10:31:24.925Z,101.5
2022-11-29T10:32:24.964Z,101.571
2022-11-29T10:33:24.993Z,101.571
2022-11-29T10:34:25.021Z,101.571
2022-11-29T10:35:25.058Z,101.571
2022-11-29T10:36:25.096Z,101.571
2022-11-29T10:37:25.119Z,101.429
2022-11-29T10:38:31.954Z,101.571
2022-11-29T10:39:25.184Z,101.571
2022-11-29T10:40:25.224Z,101.571
2022-11-29T10:41:25.265Z,101.571
2022-11-29T10:42:25.285Z,101.571
2022-11-29T10:43:25.314Z,101.571
2022-11-29T10:44:25.346Z,101.571
2022-11-29T10:45:25.381Z,101.571
2022-11-29T10:46:25.485Z,101.571
2022-11-29T10:47:25.444Z,101.571
2022-11-29T10:48:25.483Z,101.571
2022-11-29T10:49:25.506Z,101.571
2022-11-29T10:50:25.539Z,101.571
2022-11-29T10:51:25.565Z,101.571
2022-11-29T10:52:25.608Z,101.571
2022-11-29T10:53:25.633Z,101.571
2022-11-29T10:54:25.662Z,101.571
2022-11-29T10:55:25.696Z,101.571
2022-11-29T10:56:25.733Z,101.571
2022-11-29T10:57:25.756Z,101.571
2022-11-29T10:58:28.361Z,101.5
2022-11-29T10:59:25.816Z,101.571
2022-11-29T11:00:25.842Z,101.5
2022-11-29T11:01:25.944Z,101.571
2022-11-29T11:02:25.907Z,101.429
2022-11-29T11:03:25.943Z,101.5
2022-11-29T11:04:25.961Z,101.643
2022-11-29T11:05:26.075Z,101.571
2022-11-29T11:06:26.034Z,101.571
2022-11-29T11:07:26.137Z,101.571
2022-11-29T11:08:26.086Z,101.429
2022-11-29T11:09:26.109Z,101.643
2022-11-29T11:10:26.152Z,101.643
2022-11-29T11:11:26.179Z,101.571
2022-11-29T11:11:40.360Z,101.571
2022-11-29T11:12:40.387Z,101.571
2022-11-29T11:13:40.424Z,101.571
2022-11-29T11:14:40.448Z,101.643
2022-11-29T11:15:40.517Z,101.643
2022-11-29T11:16:40.605Z,101.5
2022-11-29T11:17:40.561Z,101.643
2022-11-29T11:18:40.604Z,101.643
2022-11-29T11:19:40.638Z,101.643
2022-11-29T11:20:40.686Z,101.643
2022-11-29T11:21:40.697Z,101.643
2022-11-29T11:22:40.739Z,101.643
2022-11-29T11:23:42.904Z,101.643
2022-11-29T11:24:40.819Z,101.5
2022-11-29T11:25:40.860Z,101.5
2022-11-29T11:26:40.902Z,101.643
2022-11-29T11:27:40.915Z,101.5
2022-11-29T11:28:40.958Z,101.643
2022-11-29T11:29:40.997Z,101.5
2022-11-29T11:30:41.069Z,101.643
2022-11-29T11:31:41.096Z,101.5
2022-11-29T11:32:41.108Z,101.643
2022-11-29T11:33:41.142Z,101.643
2022-11-29T11:34:41.177Z,101.643
2022-11-29T11:35:41.218Z,101.5
2022-11-29T11:36:41.273Z,101.714
2022-11-29T11:37:41.279Z,101.5
2022-11-29T11:38:41.310Z,101.643
2022-11-29T11:39:41.374Z,101.643
2022-11-29T11:40:41.450Z,101.643
2022-11-29T11:41:41.419Z,101.5
2022-11-29T11:42:41.453Z,101.643
2022-11-29T11:43:41.487Z,101.643
2022-11-29T11:44:57.998Z,101.643
2022-11-29T11:45:41.553Z,101.5
2022-11-29T11:46:41.641Z,101.5
2022-11-29T11:47:41.616Z,101.643
2022-11-29T11:48:41.657Z,101.571
2022-11-29T11:49:41.695Z,101.643
2022-11-29T11:50:41.718Z,101.643
2022-11-29T11:51:41.758Z,101.357
2022-11-29T11:52:46.113Z,101.643
2022-11-29T11:53:39.406Z,101.571
2022-11-29T11:54:39.429Z,101.571
2022-11-29T11:55:39.471Z,101.5
2022-11-29T11:56:39.485Z,101.643
2022-11-29T11:57:39.514Z,101.643
2022-11-29T11:58:39.565Z,101.643
2022-11-29T11:59:39.580Z,101.643
2022-11-29T12:00:05.030Z,101.643
2022-11-29T12:01:04.287Z,101.571
2022-11-29T12:01:15.963Z,101.429
2022-11-29T12:02:04.580Z,101.643
2022-11-29T12:02:54.774Z,101.571
2022-11-29T12:03:54.725Z,101.571
2022-11-29T12:04:54.768Z,101.643
2022-11-29T12:05:01.980Z,101.571
2022-11-29T12:06:01.451Z,101.5
2022-11-29T12:07:01.476Z,101.643
2022-11-29T12:08:08.515Z,101.643
2022-11-29T12:09:01.536Z,101.643